createdAt,value
2023-03-27T05:35:33.279Z,21.60
2023-03-27T05:36:33.566Z,19.80
2023-03-27T05:37:33.877Z,18.30
2023-03-27T05:38:34.173Z,21.20
2023-03-27T05:39:34.453Z,20.30
2023-03-27T05:40:34.740Z,19.20
2023-03-27T05:41:35.043Z,22.20
2023-03-27T05:42:35.375Z,15.70
2023-03-27T05:43:35.702Z,22.70
2023-03-27T05:44:36.009Z,19.50
2023-03-27T05:45:36.316Z,19.80
2023-03-27T05:46:36.641Z,22.10
2023-03-27T05:48:36.089Z,17.30
2023-03-27T05:49:36.411Z,17.80
2023-03-27T05:50:36.710Z,16.10
2023-03-27T05:51:36.988Z,18.10
2023-03-27T05:52:37.304Z,23.10
2023-03-27T05:53:37.656Z,25.20
2023-03-27T05:54:38.007Z,17.10
2023-03-27T05:55:38.197Z,16.20
2023-03-27T05:56:38.550Z,21.10
2023-03-27T05:57:38.822Z,20.70
2023-03-27T05:58:39.195Z,13.80
2023-03-27T05:59:39.349Z,17.30
2023-03-27T06:00:39.634Z,17.90
2023-03-27T06:01:40.014Z,21.00
2023-03-27T06:02:40.340Z,19.60
2023-03-27T06:03:40.683Z,18.00
2023-03-27T06:04:40.903Z,18.30
2023-03-27T06:05:41.205Z,19.30
2023-03-27T06:06:41.497Z,23.00
2023-03-27T06:07:43.258Z,15.80
2023-03-27T06:08:42.090Z,16.20
2023-03-27T06:09:42.415Z,16.80
2023-03-27T06:10:42.647Z,17.00
2023-03-27T06:11:42.873Z,18.20
2023-03-27T06:12:43.136Z,16.50
2023-03-27T06:13:43.416Z,14.50
2023-03-27T06:14:43.768Z,14.70
2023-03-27T06:15:44.074Z,14.70
2023-03-27T06:16:44.380Z,16.30
2023-03-27T06:17:44.755Z,14.90
2023-03-27T06:18:44.919Z,18.30
2023-03-27T06:19:45.207Z,14.20
2023-03-27T06:20:45.512Z,10.60
2023-03-27T06:21:45.849Z,17.50
2023-03-27T06:22:46.197Z,18.90
2023-03-27T06:23:46.483Z,17.70
2023-03-27T06:24:46.792Z,11.40
2023-03-27T06:25:47.137Z,16.10
2023-03-27T06:26:47.374Z,14.40
2023-03-27T06:27:47.722Z,13.80
2023-03-27T06:28:48.021Z,15.80
2023-03-27T06:29:48.354Z,13.20
2023-03-27T06:30:48.752Z,13.80
2023-03-27T06:31:49.045Z,14.00
2023-03-27T06:32:49.366Z,13.30
2023-03-27T06:33:49.502Z,14.10
2023-03-27T06:34:49.836Z,14.90
2023-03-27T06:35:52.550Z,11.20
2023-03-27T06:36:50.482Z,14.20
2023-03-27T06:37:51.354Z,11.80
2023-03-27T06:38:51.211Z,14.40
2023-03-27T06:39:51.401Z,13.50
2023-03-27T06:40:51.605Z,14.80
2023-03-27T06:41:51.942Z,13.40
2023-03-27T06:42:52.319Z,12.40
2023-03-27T06:43:52.598Z,13.00
2023-03-27T06:44:52.916Z,14.40
2023-03-27T06:45:53.221Z,15.30
2023-03-27T06:46:53.597Z,13.10
2023-03-27T06:47:55.586Z,16.40
2023-03-27T06:48:54.041Z,13.50
2023-03-27T06:49:54.338Z,15.00
2023-03-27T06:50:54.783Z,12.30
2023-03-27T06:51:54.981Z,13.50
2023-03-27T06:52:55.317Z,15.80
2023-03-27T06:53:55.637Z,13.50
2023-03-27T06:54:55.979Z,14.40
2023-03-27T06:55:56.722Z,17.00
2023-03-27T06:56:56.617Z,15.00
2023-03-27T06:57:56.924Z,16.80
2023-03-27T06:58:57.295Z,11.90
2023-03-27T06:59:59.088Z,12.40
2023-03-27T07:00:57.769Z,14.30
2023-03-27T07:01:58.113Z,10.80
2023-03-27T07:02:58.423Z,14.00
2023-03-27T07:03:58.774Z,14.40
2023-03-27T07:05:04.918Z,12.30
2023-03-27T07:06:00.689Z,11.60
2023-03-27T07:06:59.507Z,11.60
2023-03-27T07:08:05.494Z,12.30
2023-03-27T07:09:01.106Z,11.90
2023-03-27T07:10:00.467Z,14.30
2023-03-27T07:12:01.973Z,13.40
2023-03-27T07:13:01.292Z,11.20
2023-03-27T07:14:01.645Z,9.10
2023-03-27T07:15:01.934Z,9.00
2023-03-27T07:16:02.244Z,13.20
2023-03-27T07:17:02.569Z,9.70
2023-03-27T07:18:02.969Z,13.60
2023-03-27T07:19:03.169Z,15.10
2023-03-27T07:20:03.379Z,12.60
2023-03-27T07:21:03.859Z,11.90
2023-03-27T07:22:03.941Z,9.50
2023-03-27T07:23:04.258Z,9.40
2023-03-27T07:24:04.665Z,9.90
2023-03-27T07:25:04.870Z,8.60
2023-03-27T07:26:05.187Z,8.90
2023-03-27T07:27:05.516Z,9.00
2023-03-27T07:28:06.339Z,11.90
2023-03-27T07:29:06.138Z,7.90
2023-03-27T07:30:06.428Z,9.50
2023-03-27T07:31:13.543Z,7.70
2023-03-27T07:32:09.347Z,12.10
2023-03-27T07:33:07.436Z,11.70
2023-03-27T07:34:08.766Z,12.30
2023-03-27T07:35:07.965Z,8.00
2023-03-27T07:36:08.356Z,9.10
2023-03-27T07:37:08.605Z,8.80
2023-03-27T07:38:08.956Z,8.10
2023-03-27T07:39:09.255Z,7.40
2023-03-27T07:40:09.569Z,8.60
2023-03-27T07:41:09.918Z,11.20
2023-03-27T07:42:10.110Z,9.70
2023-03-27T07:43:10.441Z,9.30
2023-03-27T07:44:10.730Z,10.00
2023-03-27T07:45:11.070Z,8.80
2023-03-27T07:46:11.492Z,5.70
2023-03-27T07:47:11.733Z,6.80
2023-03-27T07:48:12.041Z,7.10
2023-03-27T07:49:12.418Z,7.00
2023-03-27T07:50:12.737Z,6.10
2023-03-27T07:51:14.344Z,8.30
2023-03-27T07:52:15.269Z,8.20
